Time;durP1;ratioP1;P1;durP2;ratioP2;P2;SDS_P1;SDS_P2;PMS_P1;PMS_P2;Temp;Humidity;BMP_temperature;BMP_pressure;BME280_temperature;BME280_humidity;BME280_pressure;Samples;Min_cycle;Max_cycle;Signal;HPM_P1;HPM_P2
2022/12/01 00:02:14;;;;;;;47.60;19.40;;;6.50;99.90;;;;;;5071884;28;20103;-60
2022/12/01 00:04:40;;;;;;;48.40;19.77;;;6.60;99.90;;;;;;5072313;28;20449;-60
2022/12/01 00:07:06;;;;;;;46.53;18.98;;;6.60;99.90;;;;;;5072748;28;20035;-60
2022/12/01 00:12:16;;;;;;;48.35;18.40;;;6.60;99.90;;;;;;5072137;28;20056;-60
2022/12/01 00:14:41;;;;;;;56.72;21.45;;;6.50;99.90;;;;;;5031546;28;20386;-59
2022/12/01 00:17:07;;;;;;;46.83;19.40;;;6.50;99.90;;;;;;5014007;28;20120;-61
2022/12/01 00:19:32;;;;;;;54.13;21.17;;;6.60;99.90;;;;;;5032121;28;20052;-60
2022/12/01 00:21:58;;;;;;;51.08;20.27;;;6.50;99.90;;;;;;5032613;28;20445;-60
2022/12/01 00:24:24;;;;;;;48.92;20.38;;;6.50;99.90;;;;;;5046450;28;20028;-59
2022/12/01 00:26:49;;;;;;;54.55;19.67;;;6.50;99.90;;;;;;5072320;28;20549;-60
2022/12/01 00:29:15;;;;;;;55.10;20.25;;;6.50;99.90;;;;;;5052833;28;20087;-60
2022/12/01 00:31:41;;;;;;;60.10;21.85;;;6.50;99.90;;;;;;5051967;28;20036;-60
2022/12/01 00:34:20;;;;;;;57.45;21.45;;;6.50;99.90;;;;;;5036490;28;20404;-57
2022/12/01 00:36:46;;;;;;;54.05;19.77;;;6.40;99.90;;;;;;5039472;28;20119;-58
2022/12/01 00:39:12;;;;;;;52.90;21.05;;;6.50;99.90;;;;;;5056213;28;20146;-60
2022/12/01 00:41:37;;;;;;;53.35;20.45;;;6.50;99.90;;;;;;5055636;28;20021;-59
2022/12/01 00:44:03;;;;;;;49.28;21.65;;;6.50;99.90;;;;;;5055369;28;20028;-60
2022/12/01 00:46:29;;;;;;;47.70;21.40;;;6.40;99.90;;;;;;5021504;28;20021;-60
2022/12/01 00:48:55;;;;;;;46.92;20.48;;;6.40;99.90;;;;;;5038224;28;20112;-59
2022/12/01 00:51:20;;;;;;;51.95;19.67;;;6.40;99.90;;;;;;5037070;28;20028;-59
2022/12/01 00:53:46;;;;;;;54.97;21.83;;;6.40;99.90;;;;;;5037865;28;20501;-60
2022/12/01 00:56:12;;;;;;;54.88;21.65;;;6.40;99.90;;;;;;5056016;28;20021;-59
2022/12/01 00:58:38;;;;;;;46.95;19.45;;;6.40;99.90;;;;;;5054862;28;20036;-59
2022/12/01 01:01:04;;;;;;;51.70;20.15;;;6.40;99.90;;;;;;5055818;28;20017;-58
2022/12/01 01:03:31;;;;;;;51.55;19.67;;;6.40;99.90;;;;;;5055335;28;20051;-60
2022/12/01 01:06:06;;;;;;;44.78;19.85;;;6.40;99.90;;;;;;5055269;28;20070;-59
2022/12/01 01:08:31;;;;;;;45.38;19.08;;;6.40;99.90;;;;;;5055290;28;20021;-58
2022/12/01 01:11:00;;;;;;;54.65;21.15;;;6.30;99.90;;;;;;5055732;28;20056;-59
2022/12/01 01:13:26;;;;;;;45.70;18.83;;;6.40;99.90;;;;;;5066692;28;20091;-59
2022/12/01 01:16:12;;;;;;;48.05;19.05;;;6.30;99.90;;;;;;5055354;28;20470;-59
2022/12/01 01:18:38;;;;;;;48.05;18.73;;;6.40;99.90;;;;;;5054436;28;20060;-60
2022/12/01 01:21:06;;;;;;;47.47;20.08;;;6.40;99.90;;;;;;5037603;28;20057;-59
2022/12/01 01:23:32;;;;;;;47.95;19.55;;;6.40;99.90;;;;;;5052546;28;20025;-60
2022/12/01 01:26:03;;;;;;;54.10;21.17;;;6.30;99.90;;;;;;5035506;28;20029;-60
2022/12/01 01:28:30;;;;;;;49.80;19.92;;;6.30;99.90;;;;;;5041536;28;20127;-60
2022/12/01 01:30:55;;;;;;;50.25;19.58;;;6.40;99.90;;;;;;5055378;28;20051;-60
2022/12/01 01:33:21;;;;;;;55.80;21.08;;;6.30;99.90;;;;;;5053917;28;20128;-60
2022/12/01 01:35:46;;;;;;;53.05;23.65;;;6.40;99.90;;;;;;5055427;28;20021;-61
2022/12/01 01:38:12;;;;;;;59.97;23.45;;;6.40;99.90;;;;;;5055031;28;20025;-60
2022/12/01 01:40:45;;;;;;;59.22;20.92;;;6.40;99.90;;;;;;5036305;28;20017;-60
2022/12/01 01:43:16;;;;;;;58.08;22.77;;;6.30;99.90;;;;;;5046689;28;20022;-59
2022/12/01 01:45:42;;;;;;;59.50;22.48;;;6.30;99.90;;;;;;5065897;28;20028;-58
2022/12/01 01:48:12;;;;;;;61.40;22.92;;;6.30;99.90;;;;;;5054048;28;20062;-59
2022/12/01 01:50:38;;;;;;;57.22;21.60;;;6.40;99.90;;;;;;5054497;28;20044;-58
2022/12/01 01:53:09;;;;;;;55.22;21.75;;;6.30;99.90;;;;;;5054698;28;20044;-59
2022/12/01 01:55:35;;;;;;;56.97;22.58;;;6.30;99.90;;;;;;5053882;28;20020;-59
2022/12/01 01:58:03;;;;;;;47.30;21.10;;;6.30;99.90;;;;;;5054827;28;20020;-59
2022/12/01 02:00:29;;;;;;;58.08;23.67;;;6.40;99.90;;;;;;5058215;28;20013;-58
2022/12/01 02:02:56;;;;;;;61.00;22.35;;;6.30;99.90;;;;;;5074035;28;20154;-60
2022/12/01 02:05:33;;;;;;;54.25;22.13;;;6.40;99.90;;;;;;5074444;28;20019;-59
2022/12/01 02:08:01;;;;;;;56.88;22.65;;;6.30;99.90;;;;;;5089456;28;20031;-60
2022/12/01 02:10:44;;;;;;;53.30;21.17;;;6.30;99.90;;;;;;5089726;28;20029;-59
2022/12/01 02:13:28;;;;;;;57.08;23.35;;;6.30;99.90;;;;;;5062537;28;20061;-60
2022/12/01 02:16:13;;;;;;;58.85;22.38;;;6.30;99.90;;;;;;5048967;28;20025;-60
2022/12/01 02:18:57;;;;;;;55.58;22.85;;;6.30;99.90;;;;;;5016436;28;20402;-60
2022/12/01 02:21:36;;;;;;;51.05;19.08;;;6.30;99.90;;;;;;5034212;28;20119;-61
2022/12/01 02:24:29;;;;;;;49.33;20.17;;;6.30;99.90;;;;;;5049059;28;20040;-59
2022/12/01 02:27:45;;;;;;;55.70;20.80;;;6.30;99.90;;;;;;5040206;28;20478;-60
2022/12/01 02:30:34;;;;;;;52.20;20.50;;;6.30;99.90;;;;;;4985915;28;20067;-61
2022/12/01 02:33:26;;;;;;;56.85;20.80;;;6.30;99.90;;;;;;5052261;28;20033;-60
2022/12/01 02:35:59;;;;;;;51.60;19.30;;;6.30;99.90;;;;;;5052415;28;20060;-61
2022/12/01 02:38:29;;;;;;;53.17;21.45;;;6.30;99.90;;;;;;5052535;28;20025;-59
2022/12/01 02:41:09;;;;;;;53.83;21.55;;;6.30;99.90;;;;;;5052139;28;20075;-61
2022/12/01 02:44:10;;;;;;;57.50;21.42;;;6.30;99.90;;;;;;5068055;28;20021;-59
2022/12/01 02:46:40;;;;;;;59.10;23.05;;;6.40;99.90;;;;;;5053419;28;20064;-61
2022/12/01 02:49:16;;;;;;;55.20;21.17;;;6.40;99.90;;;;;;5053862;28;20047;-59
2022/12/01 02:51:43;;;;;;;62.45;22.58;;;6.40;99.90;;;;;;5053033;28;20393;-58
2022/12/01 02:54:11;;;;;;;57.25;22.02;;;6.30;99.90;;;;;;5053654;28;20033;-60
2022/12/01 02:56:37;;;;;;;57.15;21.35;;;6.30;99.90;;;;;;5052617;28;20028;-59
2022/12/01 02:59:12;;;;;;;52.72;21.98;;;6.30;99.90;;;;;;5052783;28;20017;-60
2022/12/01 03:01:44;;;;;;;53.90;21.83;;;6.30;99.90;;;;;;5053259;28;20029;-60
2022/12/01 03:04:28;;;;;;;;;;;6.30;99.90;;;;;;5053200;28;20028;-61
2022/12/01 03:07:31;;;;;;;59.25;21.30;;;6.30;99.90;;;;;;5053560;28;19904;-59
2022/12/01 03:10:03;;;;;;;53.58;20.27;;;6.30;99.90;;;;;;5053695;28;20377;-60
2022/12/01 03:12:44;;;;;;;54.10;21.67;;;6.30;99.90;;;;;;5063196;28;20049;-60
2022/12/01 03:15:40;;;;;;;55.05;21.45;;;6.30;99.90;;;;;;5073289;28;20107;-60
2022/12/01 03:18:27;;;;;;;58.33;22.52;;;6.40;99.90;;;;;;5072679;28;20033;-59
2022/12/01 03:21:03;;;;;;;58.08;21.17;;;6.30;99.90;;;;;;5073513;28;20100;-59
2022/12/01 03:23:32;;;;;;;63.45;23.95;;;6.30;99.90;;;;;;5072783;28;20067;-59
2022/12/01 03:26:02;;;;;;;59.10;21.75;;;6.30;99.90;;;;;;5072357;28;20032;-60
2022/12/01 03:28:31;;;;;;;56.15;21.13;;;6.30;99.90;;;;;;5072392;28;20016;-60
2022/12/01 03:31:02;;;;;;;59.78;23.15;;;6.30;99.90;;;;;;5073128;28;20114;-60
2022/12/01 03:33:39;;;;;;;62.25;22.98;;;6.30;99.90;;;;;;5072688;28;20036;-60
2022/12/01 03:36:15;;;;;;;52.03;21.30;;;6.30;99.90;;;;;;5078038;28;20082;-60
2022/12/01 03:38:47;;;;;;;57.13;20.25;;;6.30;99.90;;;;;;5072439;28;20538;-60
2022/12/01 03:41:18;;;;;;;57.15;20.63;;;6.30;99.90;;;;;;5072016;28;20099;-60
2022/12/01 03:43:50;;;;;;;57.60;20.75;;;6.30;99.90;;;;;;5072608;28;20334;-60
2022/12/01 03:46:28;;;;;;;51.42;20.77;;;6.30;99.90;;;;;;5071879;28;20418;-60
2022/12/01 03:48:54;;;;;;;59.60;22.80;;;6.40;99.90;;;;;;5072932;28;20369;-60
2022/12/01 03:51:31;;;;;;;52.85;20.52;;;6.30;99.90;;;;;;5072121;28;20481;-61
2022/12/01 03:54:16;;;;;;;55.85;21.27;;;6.30;99.90;;;;;;5071896;28;20472;-60
2022/12/01 03:56:48;;;;;;;50.53;20.30;;;6.30;99.90;;;;;;5072832;28;20012;-61
2022/12/01 03:59:15;;;;;;;54.70;20.15;;;6.40;99.90;;;;;;5071338;28;20029;-60
2022/12/01 04:01:43;;;;;;;50.85;20.50;;;6.30;99.90;;;;;;5070734;28;20047;-61
2022/12/01 04:04:11;;;;;;;58.10;21.08;;;6.30;99.90;;;;;;5071770;28;20357;-60
2022/12/01 04:06:39;;;;;;;51.42;20.70;;;6.30;99.90;;;;;;5072513;28;20074;-60
2022/12/01 04:09:04;;;;;;;48.40;20.52;;;6.40;99.90;;;;;;5071909;28;20058;-60
2022/12/01 04:14:14;;;;;;;54.58;21.42;;;6.30;99.90;;;;;;5072444;28;20039;-59
2022/12/01 04:16:40;;;;;;;52.55;20.30;;;6.30;99.90;;;;;;5070644;28;20407;-60
2022/12/01 04:19:05;;;;;;;52.47;21.23;;;6.30;99.90;;;;;;5071854;28;20028;-60
2022/12/01 04:21:31;;;;;;;56.58;23.15;;;6.30;99.90;;;;;;5071660;28;20024;-61
2022/12/01 04:23:59;;;;;;;51.88;20.90;;;6.20;99.90;;;;;;5071616;28;20033;-59
2022/12/01 04:26:33;;;;;;;57.65;21.98;;;6.20;99.90;;;;;;5072403;28;20419;-60
2022/12/01 04:28:59;;;;;;;47.70;20.52;;;6.20;99.90;;;;;;5072151;28;20029;-60
2022/12/01 04:31:25;;;;;;;54.72;22.52;;;6.20;99.90;;;;;;5070819;28;20028;-60
2022/12/01 04:33:52;;;;;;;47.67;19.15;;;6.20;99.90;;;;;;5072448;28;20071;-61
2022/12/01 04:36:18;;;;;;;58.33;19.88;;;6.20;99.90;;;;;;5070308;28;20078;-60
2022/12/01 04:38:43;;;;;;;51.42;21.58;;;6.20;99.90;;;;;;5072356;28;20024;-60
2022/12/01 04:41:13;;;;;;;51.30;21.33;;;6.20;99.90;;;;;;5072449;28;20028;-60
2022/12/01 04:43:39;;;;;;;57.80;22.50;;;6.20;99.90;;;;;;5071396;28;20381;-60
2022/12/01 04:46:06;;;;;;;57.13;21.25;;;6.20;99.90;;;;;;5072480;28;20044;-61
2022/12/01 04:48:34;;;;;;;60.20;23.48;;;6.20;99.90;;;;;;5071699;28;20025;-60
2022/12/01 04:50:59;;;;;;;51.08;21.80;;;6.20;99.90;;;;;;5070185;28;20020;-60
2022/12/01 04:53:25;;;;;;;50.92;20.27;;;6.20;99.90;;;;;;5071534;28;20033;-60
2022/12/01 04:55:50;;;;;;;55.60;22.15;;;6.20;99.90;;;;;;5072042;28;20168;-61
2022/12/01 04:58:16;;;;;;;52.58;21.25;;;6.20;99.90;;;;;;5071222;28;20028;-60
2022/12/01 05:00:42;;;;;;;48.67;21.52;;;6.20;99.90;;;;;;5071955;28;20024;-60
2022/12/01 05:03:07;;;;;;;44.47;20.17;;;6.20;99.90;;;;;;5072029;28;20016;-60
2022/12/01 05:05:33;;;;;;;45.58;20.35;;;6.20;99.90;;;;;;5071214;28;20028;-60
2022/12/01 05:07:58;;;;;;;46.38;20.48;;;6.20;99.90;;;;;;5071978;28;20094;-60
2022/12/01 05:10:24;;;;;;;47.25;21.77;;;6.20;99.90;;;;;;5071576;28;20032;-61
2022/12/01 05:12:50;;;;;;;48.30;20.60;;;6.20;99.90;;;;;;5070888;28;20057;-60
2022/12/01 05:15:16;;;;;;;51.97;20.50;;;6.20;99.90;;;;;;5071698;28;20029;-60
2022/12/01 05:17:42;;;;;;;48.58;20.55;;;6.20;99.90;;;;;;5071410;28;20068;-60
2022/12/01 05:22:57;;;;;;;43.95;19.38;;;6.20;99.90;;;;;;5075986;28;20074;-61
2022/12/01 05:25:23;;;;;;;41.22;18.35;;;6.20;99.90;;;;;;5074722;28;20379;-59
2022/12/01 05:27:48;;;;;;;50.03;20.05;;;6.20;99.90;;;;;;5075342;28;20472;-60
2022/12/01 05:30:14;;;;;;;40.92;18.20;;;6.10;99.90;;;;;;5075314;28;20051;-60
2022/12/01 05:32:39;;;;;;;47.60;20.05;;;6.10;99.90;;;;;;5074169;28;20043;-60
2022/12/01 05:35:06;;;;;;;43.08;18.77;;;6.10;99.90;;;;;;5075258;28;20055;-60
2022/12/01 05:37:33;;;;;;;45.08;19.33;;;6.10;99.90;;;;;;5074763;28;20308;-60
2022/12/01 05:39:59;;;;;;;45.88;18.65;;;6.10;99.90;;;;;;5073124;28;20070;-60
2022/12/01 05:42:25;;;;;;;36.47;18.10;;;6.00;99.90;;;;;;5074662;28;20111;-59
2022/12/01 05:44:51;;;;;;;58.47;22.67;;;6.00;99.90;;;;;;5073799;28;20070;-59
2022/12/01 05:47:16;;;;;;;51.35;21.80;;;6.00;99.90;;;;;;5074128;28;20025;-59
2022/12/01 05:49:42;;;;;;;46.05;20.15;;;6.00;99.90;;;;;;5072988;28;20098;-59
2022/12/01 05:52:08;;;;;;;53.95;22.35;;;6.00;99.90;;;;;;5072804;28;20171;-59
2022/12/01 05:54:33;;;;;;;51.28;20.17;;;5.90;99.90;;;;;;5071214;28;20024;-60
2022/12/01 05:56:59;;;;;;;48.10;19.25;;;5.90;99.90;;;;;;5073458;28;20082;-59
2022/12/01 05:59:24;;;;;;;48.90;20.52;;;5.90;99.90;;;;;;5074238;28;20380;-60
2022/12/01 06:01:50;;;;;;;43.28;18.60;;;5.90;99.90;;;;;;5074086;28;20222;-60
2022/12/01 06:04:17;;;;;;;51.40;20.67;;;5.90;99.90;;;;;;5074277;28;20479;-60
2022/12/01 06:06:43;;;;;;;54.30;23.70;;;6.00;99.90;;;;;;5091418;28;20020;-60
2022/12/01 06:09:09;;;;;;;49.80;21.15;;;6.00;99.90;;;;;;5083204;28;20392;-60
2022/12/01 06:11:34;;;;;;;46.70;20.40;;;6.00;99.90;;;;;;5073827;28;20318;-60
2022/12/01 06:14:00;;;;;;;48.38;20.88;;;6.00;99.90;;;;;;5073802;28;20028;-60
2022/12/01 06:16:25;;;;;;;54.17;22.13;;;6.10;99.90;;;;;;5072086;28;20021;-60
2022/12/01 06:18:51;;;;;;;47.03;22.48;;;6.10;99.90;;;;;;5072879;28;20040;-60
2022/12/01 06:21:17;;;;;;;57.08;22.90;;;6.10;99.90;;;;;;5071881;28;20115;-59
2022/12/01 06:23:42;;;;;;;51.00;21.02;;;6.10;99.90;;;;;;5071941;28;20024;-59
2022/12/01 06:26:08;;;;;;;52.15;20.23;;;6.10;99.90;;;;;;5073164;28;21115;-60
2022/12/01 06:28:33;;;;;;;43.15;19.17;;;6.10;99.90;;;;;;5074740;28;20468;-58
2022/12/01 06:30:59;;;;;;;50.10;22.38;;;6.20;99.90;;;;;;5071364;28;20032;-60
2022/12/01 06:33:25;;;;;;;52.33;20.08;;;6.20;99.90;;;;;;5073535;28;20116;-60
2022/12/01 06:35:58;;;;;;;49.95;22.50;;;6.20;99.90;;;;;;5073456;28;20055;-58
2022/12/01 06:38:24;;;;;;;59.55;24.30;;;6.20;99.90;;;;;;5073510;28;20024;-59
2022/12/01 06:40:50;;;;;;;55.22;23.02;;;6.10;99.90;;;;;;5073859;28;20070;-58
2022/12/01 06:43:15;;;;;;;48.67;21.67;;;6.10;99.90;;;;;;5072925;28;20032;-60
2022/12/01 06:45:41;;;;;;;54.75;21.83;;;6.10;99.90;;;;;;5072463;28;20028;-59
2022/12/01 06:48:07;;;;;;;50.55;20.80;;;6.10;99.90;;;;;;5073678;28;20028;-60
2022/12/01 06:50:33;;;;;;;57.35;24.48;;;6.10;99.90;;;;;;5071405;28;20531;-60
2022/12/01 06:52:58;;;;;;;57.22;23.02;;;6.10;99.90;;;;;;5073631;28;20043;-60
2022/12/01 06:55:24;;;;;;;53.63;22.90;;;6.10;99.90;;;;;;5072041;28;20016;-60
2022/12/01 06:57:50;;;;;;;60.40;24.95;;;6.00;99.90;;;;;;5072113;28;20123;-58
2022/12/01 07:00:16;;;;;;;59.13;23.05;;;6.00;99.90;;;;;;5073299;28;20021;-59
2022/12/01 07:02:41;;;;;;;57.30;22.60;;;6.00;99.90;;;;;;5050966;28;20310;-58
2022/12/01 07:05:08;;;;;;;62.13;23.40;;;6.00;99.90;;;;;;5066270;28;21798;-59
2022/12/01 07:07:38;;;;;;;53.53;21.98;;;6.00;99.90;;;;;;5075607;28;20024;-59
2022/12/01 07:10:05;;;;;;;56.85;23.50;;;6.00;99.90;;;;;;5092834;28;20077;-58
2022/12/01 07:12:31;;;;;;;54.25;23.30;;;6.10;99.90;;;;;;5090726;28;20059;-60
2022/12/01 07:14:57;;;;;;;62.47;25.77;;;6.00;99.90;;;;;;5083395;28;20016;-60
2022/12/01 07:17:23;;;;;;;60.60;23.98;;;6.00;99.90;;;;;;5070524;28;20030;-59
2022/12/01 07:19:48;;;;;;;64.85;22.98;;;6.00;99.90;;;;;;5067702;28;20047;-59
2022/12/01 07:22:14;;;;;;;57.92;23.15;;;6.00;99.90;;;;;;5077718;28;20040;-59
2022/12/01 07:24:40;;;;;;;58.63;24.63;;;6.00;99.90;;;;;;5083941;28;20052;-56
2022/12/01 07:27:06;;;;;;;60.00;23.52;;;6.00;99.90;;;;;;5070617;28;20432;-52
2022/12/01 07:29:32;;;;;;;61.35;23.50;;;6.00;99.90;;;;;;5070885;28;20056;-59
2022/12/01 07:31:58;;;;;;;58.03;21.90;;;6.00;99.90;;;;;;5104290;28;20115;-59
2022/12/01 07:34:23;;;;;;;61.50;22.58;;;6.00;99.90;;;;;;5069904;28;20060;-59
2022/12/01 07:36:49;;;;;;;64.63;25.35;;;6.00;99.90;;;;;;5072488;28;20024;-59
2022/12/01 07:39:14;;;;;;;63.90;25.73;;;6.00;99.90;;;;;;5070935;28;20411;-60
2022/12/01 07:41:40;;;;;;;58.20;22.45;;;6.00;99.90;;;;;;5072152;28;20020;-59
2022/12/01 07:44:07;;;;;;;65.65;22.95;;;6.00;99.90;;;;;;5072625;28;20020;-59
2022/12/01 07:46:33;;;;;;;55.80;21.52;;;6.10;99.90;;;;;;5071748;28;20107;-60
2022/12/01 07:48:59;;;;;;;58.83;23.35;;;6.10;99.90;;;;;;5072788;28;20421;-60
2022/12/01 07:51:25;;;;;;;68.30;24.40;;;6.10;99.90;;;;;;5072348;28;20028;-60
2022/12/01 07:53:52;;;;;;;64.30;23.85;;;6.10;99.90;;;;;;5071933;28;20497;-60
2022/12/01 07:56:19;;;;;;;57.70;23.05;;;6.10;99.90;;;;;;5072750;28;20150;-61
2022/12/01 07:58:44;;;;;;;62.55;24.60;;;6.10;99.90;;;;;;5072848;28;20017;-60
2022/12/01 08:01:13;;;;;;;61.67;23.25;;;6.20;99.90;;;;;;5072066;28;20354;-60
2022/12/01 08:03:39;;;;;;;70.35;25.33;;;6.10;99.90;;;;;;5072366;28;20028;-60
2022/12/01 08:06:06;;;;;;;68.10;25.83;;;6.10;99.90;;;;;;5072707;28;20017;-60
2022/12/01 08:08:33;;;;;;;68.28;24.83;;;6.20;99.90;;;;;;5071971;28;20032;-61
2022/12/01 08:11:01;;;;;;;62.30;24.05;;;6.10;99.90;;;;;;5072765;28;20036;-61
2022/12/01 08:13:27;;;;;;;61.90;24.92;;;6.20;99.90;;;;;;5071843;28;20506;-61
2022/12/01 08:15:53;;;;;;;59.53;22.67;;;6.20;99.90;;;;;;5072355;28;20357;-61
2022/12/01 08:18:19;;;;;;;61.85;22.70;;;6.20;99.90;;;;;;5072068;28;20032;-61
2022/12/01 08:20:44;;;;;;;68.18;24.52;;;6.30;99.90;;;;;;5071506;28;20098;-60
2022/12/01 08:23:10;;;;;;;75.20;26.27;;;6.30;99.90;;;;;;5072318;28;20056;-60
2022/12/01 08:25:35;;;;;;;66.75;24.30;;;6.30;99.90;;;;;;5072157;28;20372;-60
2022/12/01 08:28:01;;;;;;;72.85;24.67;;;6.20;99.90;;;;;;5070400;28;20028;-60
2022/12/01 08:30:27;;;;;;;63.78;24.13;;;6.30;99.90;;;;;;5071957;28;20422;-61
2022/12/01 08:32:54;;;;;;;65.47;24.30;;;6.30;99.90;;;;;;5072112;28;20037;-60
2022/12/01 08:35:20;;;;;;;66.60;23.23;;;6.30;99.90;;;;;;5071249;28;20073;-61
2022/12/01 08:37:45;;;;;;;63.92;24.70;;;6.30;99.90;;;;;;5072152;28;20047;-60
2022/12/01 08:40:11;;;;;;;60.67;23.58;;;6.30;99.90;;;;;;5072213;28;20105;-61
2022/12/01 08:42:37;;;;;;;75.75;25.83;;;6.30;99.90;;;;;;5071119;28;20051;-61
2022/12/01 08:45:03;;;;;;;71.75;26.58;;;6.30;99.90;;;;;;5070971;28;20028;-61
2022/12/01 08:47:29;;;;;;;67.10;24.95;;;6.40;99.90;;;;;;5072008;28;20048;-61
2022/12/01 08:49:55;;;;;;;65.68;24.95;;;6.40;99.90;;;;;;5071427;28;20078;-61
2022/12/01 08:52:20;;;;;;;74.03;26.70;;;6.40;99.90;;;;;;5071665;28;20188;-61
2022/12/01 08:54:46;;;;;;;70.90;25.70;;;6.40;99.90;;;;;;5073694;28;20021;-61
2022/12/01 08:57:12;;;;;;;63.30;25.38;;;6.40;99.90;;;;;;5075289;28;20095;-61
2022/12/01 08:59:37;;;;;;;62.35;25.73;;;6.40;99.90;;;;;;5075548;28;20029;-61
2022/12/01 09:02:03;;;;;;;64.30;25.45;;;6.40;99.90;;;;;;5075741;28;20023;-61
2022/12/01 09:04:29;;;;;;;60.67;23.45;;;6.50;99.90;;;;;;5074699;28;20035;-61
2022/12/01 09:06:56;;;;;;;73.00;26.83;;;6.60;99.90;;;;;;5075615;28;20099;-60
2022/12/01 09:09:24;;;;;;;63.20;24.63;;;6.60;99.90;;;;;;5075403;28;20085;-61
2022/12/01 09:11:51;;;;;;;69.90;24.48;;;6.60;99.90;;;;;;5074815;28;20070;-61
2022/12/01 09:14:18;;;;;;;59.30;25.42;;;6.60;99.90;;;;;;5075344;28;20020;-61
2022/12/01 09:16:46;;;;;;;69.78;24.35;;;6.70;99.90;;;;;;5075514;28;20074;-61
2022/12/01 09:19:13;;;;;;;64.80;24.08;;;6.70;99.90;;;;;;5075414;28;20074;-61
2022/12/01 09:21:41;;;;;;;66.43;26.75;;;6.60;99.90;;;;;;5075132;28;20017;-61
2022/12/01 09:24:09;;;;;;;71.93;25.42;;;6.60;99.90;;;;;;5074729;28;20438;-61
2022/12/01 09:26:34;;;;;;;69.07;25.55;;;6.60;99.90;;;;;;5074989;28;20055;-61
2022/12/01 09:29:03;;;;;;;66.25;24.77;;;6.70;99.90;;;;;;5075305;28;20025;-61
2022/12/01 09:31:29;;;;;;;62.35;24.33;;;6.70;99.90;;;;;;5073133;28;20013;-61
2022/12/01 09:33:56;;;;;;;63.58;24.35;;;6.70;99.90;;;;;;5075186;28;20151;-61
2022/12/01 09:36:22;;;;;;;65.82;25.25;;;6.80;99.90;;;;;;5074828;28;20024;-61
2022/12/01 09:38:48;;;;;;;69.53;24.58;;;6.80;99.90;;;;;;5074514;28;20018;-61
2022/12/01 09:41:16;;;;;;;66.88;25.60;;;6.80;99.90;;;;;;5075096;28;20467;-61
2022/12/01 09:43:47;;;;;;;62.00;23.38;;;6.80;99.90;;;;;;5075097;28;20031;-61
2022/12/01 09:46:25;;;;;;;64.80;25.65;;;6.80;99.90;;;;;;5073130;28;20515;-61
2022/12/01 09:48:52;;;;;;;69.75;27.00;;;6.80;99.90;;;;;;5074991;28;20020;-61
2022/12/01 09:51:21;;;;;;;63.75;26.02;;;6.80;99.90;;;;;;5074656;28;20412;-61
2022/12/01 09:53:49;;;;;;;61.85;24.20;;;6.80;99.90;;;;;;5074043;28;20043;-61
2022/12/01 09:56:21;;;;;;;58.28;24.13;;;6.80;99.90;;;;;;5074828;28;20025;-61
2022/12/01 09:58:51;;;;;;;55.67;23.55;;;6.80;99.90;;;;;;5074861;28;20048;-61
2022/12/01 10:01:19;;;;;;;57.50;22.40;;;6.80;99.90;;;;;;5073824;28;20017;-61
2022/12/01 10:03:54;;;;;;;55.83;23.27;;;6.80;99.90;;;;;;5074567;28;20029;-61
2022/12/01 10:06:28;;;;;;;62.22;23.83;;;6.90;99.90;;;;;;5073433;28;20486;-61
2022/12/01 10:09:20;;;;;;;58.03;24.63;;;6.90;99.90;;;;;;5074649;28;20044;-61
2022/12/01 10:11:47;;;;;;;62.70;23.10;;;6.90;99.90;;;;;;5073012;28;20048;-61
2022/12/01 10:14:16;;;;;;;54.95;24.20;;;6.90;99.90;;;;;;5073601;28;20017;-59
2022/12/01 10:17:03;;;;;;;61.25;25.05;;;6.90;99.90;;;;;;5074260;28;20468;-59
2022/12/01 10:19:54;;;;;;;55.90;21.92;;;6.90;99.90;;;;;;5074044;28;20103;-59
2022/12/01 10:22:51;;;;;;;54.30;24.17;;;6.90;99.90;;;;;;5043142;28;20033;-60
2022/12/01 10:25:24;;;;;;;56.63;23.55;;;6.90;99.90;;;;;;5073976;28;20456;-60
2022/12/01 10:28:21;;;;;;;61.00;23.38;;;6.90;99.90;;;;;;5073446;28;20384;-60
2022/12/01 10:30:52;;;;;;;52.80;22.80;;;6.90;99.90;;;;;;5074196;28;20101;-60
2022/12/01 10:33:29;;;;;;;56.88;23.25;;;6.90;99.90;;;;;;5073774;28;20033;-60
2022/12/01 10:35:56;;;;;;;61.33;24.88;;;7.00;99.90;;;;;;5073490;28;20028;-60
2022/12/01 10:38:28;;;;;;;60.78;25.42;;;7.00;99.90;;;;;;5073610;28;20063;-60
2022/12/01 10:40:58;;;;;;;54.53;22.23;;;7.00;99.90;;;;;;5073725;28;20021;-60
2022/12/01 10:43:33;;;;;;;61.38;24.17;;;7.00;99.90;;;;;;5071397;28;20479;-60
2022/12/01 10:46:03;;;;;;;62.75;22.13;;;7.10;99.90;;;;;;5073764;28;20468;-60
2022/12/01 10:48:29;;;;;;;55.72;22.58;;;7.10;99.90;;;;;;5105402;28;20040;-60
2022/12/01 10:51:12;;;;;;;57.85;23.65;;;7.20;99.90;;;;;;5073512;28;20031;-60
2022/12/01 10:53:37;;;;;;;59.78;25.17;;;7.30;99.90;;;;;;5073081;28;20049;-60
2022/12/01 10:56:06;;;;;;;55.00;23.83;;;7.30;99.90;;;;;;5073070;28;20017;-60
2022/12/01 10:58:40;;;;;;;53.53;23.48;;;7.40;99.90;;;;;;5073015;28;20029;-59
2022/12/01 11:01:06;;;;;;;55.03;23.13;;;7.50;99.90;;;;;;5073658;28;20021;-60
2022/12/01 11:03:34;;;;;;;54.63;23.45;;;7.50;99.90;;;;;;5072395;28;20016;-60
2022/12/01 11:06:02;;;;;;;51.95;21.75;;;7.60;99.90;;;;;;5073185;28;20103;-60
2022/12/01 11:08:38;;;;;;;54.00;23.08;;;7.70;99.90;;;;;;5073154;28;20024;-60
2022/12/01 11:11:04;;;;;;;53.85;23.95;;;7.80;99.90;;;;;;5072641;28;20078;-60
2022/12/01 11:13:34;;;;;;;54.08;22.67;;;7.80;99.90;;;;;;5072676;28;20477;-60
2022/12/01 11:16:03;;;;;;;55.40;23.10;;;7.90;99.90;;;;;;5071710;28;20017;-60
2022/12/01 11:18:35;;;;;;;55.65;22.73;;;8.00;99.90;;;;;;5071283;28;20481;-60
2022/12/01 11:21:24;;;;;;;57.17;23.42;;;8.00;99.90;;;;;;5072972;28;20040;-60
2022/12/01 11:23:52;;;;;;;49.53;22.77;;;8.00;99.90;;;;;;5070943;28;20127;-59
2022/12/01 11:26:24;;;;;;;49.72;21.83;;;7.90;99.90;;;;;;5072697;28;20056;-59
2022/12/01 11:29:05;;;;;;;48.22;21.75;;;7.80;99.90;;;;;;5072974;28;20020;-60
2022/12/01 11:31:44;;;;;;;46.50;20.23;;;7.80;99.90;;;;;;5072127;28;20043;-60
2022/12/01 11:34:23;;;;;;;47.67;20.27;;;7.80;99.90;;;;;;5072790;28;20162;-60
2022/12/01 11:36:54;;;;;;;49.33;20.55;;;7.80;99.90;;;;;;5072808;28;20020;-59
2022/12/01 11:39:44;;;;;;;44.88;19.23;;;7.70;99.90;;;;;;5071744;28;20047;-59
2022/12/01 11:42:13;;;;;;;48.47;20.38;;;7.60;99.90;;;;;;5067181;28;20036;-60
2022/12/01 11:44:39;;;;;;;44.58;21.55;;;7.60;99.90;;;;;;5071759;28;20086;-60
2022/12/01 11:47:17;;;;;;;48.70;22.00;;;7.60;99.90;;;;;;5072597;28;20021;-60
2022/12/01 11:49:46;;;;;;;48.38;20.60;;;7.60;99.90;;;;;;5072678;28;20099;-60
2022/12/01 11:52:26;;;;;;;46.78;20.48;;;7.60;99.90;;;;;;5071644;28;20033;-60
2022/12/01 11:55:19;;;;;;;47.70;19.40;;;7.50;99.90;;;;;;5071485;28;20153;-60
2022/12/01 11:57:48;;;;;;;47.55;19.08;;;7.50;99.90;;;;;;5072587;28;20043;-60
2022/12/01 12:00:20;;;;;;;53.47;20.42;;;7.50;99.90;;;;;;5072308;28;20081;-60
2022/12/01 12:03:16;;;;;;;48.38;20.73;;;7.50;99.90;;;;;;5072400;28;20013;-60
2022/12/01 12:06:05;;;;;;;53.22;22.67;;;7.50;99.90;;;;;;5071712;28;20025;-60
2022/12/01 12:08:52;;;;;;;47.95;20.02;;;7.60;99.90;;;;;;5072178;28;20024;-60
2022/12/01 12:11:29;;;;;;;53.05;21.52;;;7.60;99.90;;;;;;5071907;28;20025;-60
2022/12/01 12:14:22;;;;;;;46.08;19.98;;;7.70;99.90;;;;;;5071472;28;20033;-60
2022/12/01 12:17:29;;;;;;;50.25;20.52;;;7.70;99.90;;;;;;5072294;28;20468;-60
2022/12/01 12:20:22;;;;;;;49.17;20.42;;;7.60;99.90;;;;;;5071787;28;20025;-60
2022/12/01 12:23:08;;;;;;;50.28;21.80;;;7.50;99.90;;;;;;5072279;28;20028;-60
2022/12/01 12:26:05;;;;;;;45.58;20.02;;;7.40;99.90;;;;;;5071972;28;20024;-60
2022/12/01 12:28:53;;;;;;;45.00;19.75;;;7.40;99.90;;;;;;5072505;28;20468;-60
2022/12/01 12:31:42;;;;;;;55.65;20.90;;;7.40;99.90;;;;;;5076237;28;20025;-60
2022/12/01 12:34:57;;;;;;;47.35;18.92;;;7.40;99.90;;;;;;5067058;28;20114;-61
2022/12/01 12:37:44;;;;;;;51.92;22.50;;;7.30;99.90;;;;;;5050190;28;20026;-61
2022/12/01 12:40:31;;;;;;;52.17;19.92;;;7.30;99.90;;;;;;5072857;28;20094;-60
2022/12/01 12:43:21;;;;;;;43.70;19.17;;;7.40;99.90;;;;;;5076168;28;20021;-60
2022/12/01 12:46:00;;;;;;;46.88;19.25;;;7.40;99.90;;;;;;5076417;28;20468;-61
2022/12/01 12:48:38;;;;;;;50.42;21.65;;;7.50;99.90;;;;;;5074349;28;20039;-61
2022/12/01 12:51:14;;;;;;;42.83;18.50;;;7.60;99.90;;;;;;5075968;28;20032;-60
2022/12/01 12:53:57;;;;;;;44.72;19.00;;;7.70;99.90;;;;;;5073558;28;20032;-61
2022/12/01 12:56:24;;;;;;;46.38;19.38;;;7.80;99.90;;;;;;5075626;28;20016;-61
2022/12/01 12:58:59;;;;;;;43.28;19.23;;;7.90;99.90;;;;;;5075906;28;20037;-60
2022/12/01 13:01:40;;;;;;;47.10;21.15;;;7.90;99.90;;;;;;5074862;28;20068;-60
2022/12/01 13:04:21;;;;;;;44.45;19.02;;;7.90;99.90;;;;;;5075889;28;20052;-60
2022/12/01 13:07:00;;;;;;;49.67;21.15;;;7.90;99.90;;;;;;5075799;28;20103;-60